Terminal Aerodrome Forecast
Issued by NWS Chicago, IL

Home | Current Version | Previous Version | Graphics & Text | Print | Product List | Glossary On
Versions: 1 2 3 4 5 6 7 8 9 10 11 12 13 14 15 16 17 18 19 20 21 22 23 24 25 26 27 28 29
000
FTUS43 KLOT 210520
TAFRFD
TAF
KRFD 210520Z 2106/2206 15009KT 3SM BR BCFG SCT005 OVC250
      TEMPO 2106/2108 1SM BR BCFG BKN005
     FM210800 25010KT P6SM BKN040
     FM211400 25015G25KT P6SM BKN035
     FM220200 25012KT P6SM BKN035=

USA.gov is the U.S. government's official web portal to all federal, state and local government web resources and services.